Willow Street, PA (17584)

4:36 AM EST on February 10, 2016 (GMT -0500)
Willow Street | | Change Station
CLOSE
Current Station
Personal Weather Station
Location: Willow Street, PA
Elevation: 476 ft
Nearby Weather Stations

Elev 476 ft 39.97 °N, 76.27 °W | Updated 47 seconds ago

Snow
Snow
26.2 °F
Feels Like 26 °F
N
0.0
Wind Variable Wind from WSW
Gusts 0.0 mph

Today
High -- | Low -- °F
--% Chance of Precip.
Yesterday
High -- | Low -- °F
Precip. -- in
Pressure 29.64 in
Visibility 8.0 miles
Clouds Mostly Cloudy 3100 ft
Overcast 4800 ft
Windchill 26 °F
Dew Point 25 °F
Humidity 95%
Rainfall 0.00 in
Snow Depth Not available.
7:04 AM 5:34 PM
Waxing Crescent, 4% visible
METAR KLNS 100853Z AUTO 27010KT 8SM BKN031 OVC048 M02/M04 A2962 RMK AO2 SNE41 SLP035 P0000 60000 T10221039 53002
Pressure 29.64 in
Visibility 8.0 miles
Clouds Mostly Cloudy 3100 ft
Overcast 4800 ft
Windchill 26 °F
Dew Point 25 °F
Humidity 95%
Rainfall 0.00 in
Snow Depth Not available.
7:04 AM 5:34 PM
Waxing Crescent, 4% visible
METAR KLNS 100853Z AUTO 27010KT 8SM BKN031 OVC048 M02/M04 A2962 RMK AO2 SNE41 SLP035 P0000 60000 T10221039 53002

10-Day Weather Forecast

Almanac

Astronomy

Feb. 10, 2016 Rise Set
Actual Time
Civil Twilight
Nautical Twilight
Astronomical Twilight
Moon
Length of Visible Light
Length of Day
Tomorrow will be .
, % of the Moon is Illuminated

Today's Extremes

State Highs State Lows

Community

WunderPhotos

Upload Photos

1,891,826 photos uploaded!

WunderBlog® & News

Nearby

Air Quality

  Air Quality AQ Index Pollutant
Not available.

Snow Depth

Station Depth Elevation

Earthquake Activity

City Distance Mag. Time & Date
Minimum magnitude displayed is 2.5.

Coastal Water Temperatures

Place Temperature

Stations

Nearby Weather Stations

Station Location Temp. Windchill Dew Point Humidity Wind Precip. Elev Updated Type
                   

Watches & Warnings

There are currently no watches in effect.